createdAt,value
2022-10-17T00:02:15.763Z,8.52
2022-10-17T00:04:42.963Z,8.45
2022-10-17T00:07:10.071Z,9.20
2022-10-17T00:09:37.186Z,8.65
2022-10-17T00:12:04.366Z,8.93
2022-10-17T00:14:31.623Z,9.57
2022-10-17T00:16:58.730Z,8.93
2022-10-17T00:19:25.815Z,8.80
2022-10-17T00:21:53.048Z,8.85
2022-10-17T00:24:20.155Z,9.07
2022-10-17T00:26:47.204Z,8.85
2022-10-17T00:29:14.296Z,8.95
2022-10-17T00:31:47.791Z,9.57
2022-10-17T00:34:14.998Z,9.75
2022-10-17T00:36:42.147Z,9.10
2022-10-17T00:39:09.889Z,9.35
2022-10-17T00:41:36.977Z,9.55
2022-10-17T00:44:08.020Z,9.00
2022-10-17T00:46:39.468Z,10.20
2022-10-17T00:49:10.774Z,9.77
2022-10-17T00:51:42.245Z,9.07
2022-10-17T00:54:10.567Z,9.48
2022-10-17T00:56:38.314Z,9.68
2022-10-17T01:01:33.540Z,9.48
2022-10-17T01:04:00.819Z,9.23
2022-10-17T01:06:27.954Z,8.95
2022-10-17T01:08:55.184Z,8.98
2022-10-17T01:11:28.576Z,9.60
2022-10-17T01:14:11.323Z,9.52
2022-10-17T01:16:52.608Z,8.93
2022-10-17T01:19:31.694Z,9.38
2022-10-17T01:22:23.219Z,8.35
2022-10-17T01:25:01.735Z,8.50
2022-10-17T01:27:44.716Z,9.75
2022-10-17T01:30:27.618Z,8.93
2022-10-17T01:32:57.567Z,8.77
2022-10-17T01:35:32.633Z,8.55
2022-10-17T01:38:23.079Z,8.77
2022-10-17T01:41:00.937Z,8.43
2022-10-17T01:43:42.111Z,8.85
2022-10-17T01:46:09.167Z,8.75
2022-10-17T01:48:37.471Z,8.88
2022-10-17T01:51:08.913Z,8.75
2022-10-17T01:53:40.058Z,8.82
2022-10-17T01:56:09.043Z,9.68
2022-10-17T01:58:38.971Z,10.10
2022-10-17T02:01:10.484Z,10.32
2022-10-17T02:03:38.334Z,9.75
2022-10-17T02:06:06.579Z,8.40
2022-10-17T02:08:46.112Z,9.20
2022-10-17T02:11:21.343Z,11.10
2022-10-17T02:14:13.276Z,10.57
2022-10-17T02:16:55.132Z,9.40
2022-10-17T02:19:22.205Z,10.70
2022-10-17T02:22:02.539Z,10.35
2022-10-17T02:24:32.757Z,10.68
2022-10-17T02:29:30.027Z,10.07
2022-10-17T02:32:01.950Z,10.57
2022-10-17T02:34:32.268Z,10.55
2022-10-17T02:37:01.233Z,11.05
2022-10-17T02:39:29.468Z,10.02
2022-10-17T02:41:58.603Z,11.27
2022-10-17T02:44:26.251Z,11.52
2022-10-17T02:46:56.711Z,10.32
2022-10-17T02:49:26.715Z,10.75
2022-10-17T02:52:13.247Z,11.85
2022-10-17T02:54:46.641Z,10.70
2022-10-17T02:57:25.968Z,11.18
2022-10-17T02:59:53.250Z,11.20
2022-10-17T03:02:22.506Z,9.77
2022-10-17T03:04:50.905Z,9.55
2022-10-17T03:07:18.167Z,10.35
2022-10-17T03:09:45.375Z,9.32
2022-10-17T03:12:12.499Z,9.95
2022-10-17T03:14:39.821Z,9.27
2022-10-17T03:17:07.109Z,10.13
2022-10-17T03:19:35.746Z,10.88
2022-10-17T03:22:04.034Z,8.40
2022-10-17T03:24:33.581Z,8.65
2022-10-17T03:27:00.949Z,9.88
2022-10-17T03:29:28.290Z,7.07
2022-10-17T03:31:56.004Z,9.63
2022-10-17T03:34:23.422Z,8.63
2022-10-17T03:36:50.801Z,10.13
2022-10-17T03:39:19.340Z,8.15
2022-10-17T03:41:47.007Z,7.97
2022-10-17T03:44:15.092Z,8.10
2022-10-17T03:46:42.380Z,7.53
2022-10-17T03:49:09.950Z,9.25
2022-10-17T03:51:37.226Z,8.57
2022-10-17T03:54:09.631Z,7.28
2022-10-17T03:56:37.231Z,8.25
2022-10-17T03:59:07.986Z,9.65
2022-10-17T04:01:37.778Z,8.45
2022-10-17T04:04:05.276Z,9.20
2022-10-17T04:06:35.294Z,8.43
2022-10-17T04:09:02.572Z,9.10
2022-10-17T04:11:46.480Z,8.55
2022-10-17T04:14:14.604Z,9.15
2022-10-17T04:16:42.703Z,8.77
2022-10-17T04:19:15.480Z,9.32
2022-10-17T04:21:46.419Z,8.90
2022-10-17T04:24:14.975Z,9.15
2022-10-17T04:26:45.066Z,8.65
2022-10-17T04:29:13.492Z,8.48
2022-10-17T04:31:42.929Z,8.40
2022-10-17T04:34:23.779Z,8.48
2022-10-17T04:36:52.034Z,9.02
2022-10-17T04:39:19.933Z,9.30
2022-10-17T04:41:47.455Z,7.43
2022-10-17T04:44:15.030Z,9.43
2022-10-17T04:46:47.895Z,7.07
2022-10-17T04:49:15.059Z,7.63
2022-10-17T04:51:44.684Z,8.52
2022-10-17T04:54:19.440Z,8.45
2022-10-17T04:56:50.785Z,8.38
2022-10-17T04:59:17.937Z,8.15
2022-10-17T05:01:46.787Z,6.88
2022-10-17T05:04:13.986Z,7.07
2022-10-17T05:06:41.156Z,7.15
2022-10-17T05:09:38.985Z,9.65
2022-10-17T05:12:09.457Z,8.60
2022-10-17T05:14:43.072Z,8.20
2022-10-17T05:17:10.355Z,6.32
2022-10-17T05:19:40.233Z,8.70
2022-10-17T05:22:10.175Z,8.25
2022-10-17T05:24:37.287Z,8.27
2022-10-17T05:27:04.571Z,7.40
2022-10-17T05:29:32.770Z,7.47
2022-10-17T05:32:10.686Z,7.97
2022-10-17T05:34:38.439Z,7.75
2022-10-17T05:37:06.193Z,8.25
2022-10-17T05:39:34.400Z,6.97
2022-10-17T05:42:01.727Z,7.40
2022-10-17T05:44:29.158Z,7.10
2022-10-17T05:46:59.755Z,7.32
2022-10-17T05:49:45.072Z,6.18
2022-10-17T05:52:13.518Z,7.32
2022-10-17T05:54:57.863Z,8.05
2022-10-17T05:57:26.230Z,8.27
2022-10-17T05:59:53.618Z,8.27
2022-10-17T06:02:21.982Z,8.13
2022-10-17T06:04:50.081Z,7.55
2022-10-17T06:07:19.280Z,7.90
2022-10-17T06:09:47.628Z,7.75
2022-10-17T06:12:15.354Z,8.75
2022-10-17T06:14:43.039Z,8.90
2022-10-17T06:17:15.797Z,7.25
2022-10-17T06:19:44.730Z,7.70
2022-10-17T06:22:13.468Z,7.85
2022-10-17T06:24:40.780Z,7.65
2022-10-17T06:27:11.037Z,8.40
2022-10-17T06:29:39.227Z,6.90
2022-10-17T06:32:08.704Z,8.30
2022-10-17T06:34:38.604Z,7.82
2022-10-17T06:37:05.999Z,8.07
2022-10-17T06:39:35.969Z,7.75
2022-10-17T06:42:07.490Z,7.13
2022-10-17T06:44:53.456Z,7.55
2022-10-17T06:47:37.098Z,8.10
2022-10-17T06:50:15.048Z,6.05
2022-10-17T06:52:51.214Z,7.18
2022-10-17T06:55:37.175Z,7.22
2022-10-17T06:58:17.760Z,6.47
2022-10-17T07:01:01.119Z,8.70
2022-10-17T07:03:29.087Z,6.78
2022-10-17T07:05:57.360Z,5.97
2022-10-17T07:08:24.716Z,7.78
2022-10-17T07:10:54.692Z,8.13
2022-10-17T07:13:23.672Z,6.35
2022-10-17T07:15:51.231Z,7.18
2022-10-17T07:18:18.807Z,7.93
2022-10-17T07:20:52.936Z,6.82
2022-10-17T07:23:20.152Z,7.55
2022-10-17T07:25:48.947Z,7.53
2022-10-17T07:28:17.616Z,7.40
2022-10-17T07:30:45.570Z,8.02
2022-10-17T07:33:14.000Z,7.90
2022-10-17T07:35:41.267Z,8.60
2022-10-17T07:38:08.854Z,7.40
2022-10-17T07:40:36.178Z,8.23
2022-10-17T07:43:03.390Z,6.70
2022-10-17T07:45:31.411Z,7.45
2022-10-17T07:47:58.995Z,7.22
2022-10-17T07:50:40.200Z,7.95
2022-10-17T07:53:07.378Z,8.00
2022-10-17T07:55:34.766Z,7.28
2022-10-17T07:58:01.877Z,8.15
2022-10-17T08:00:28.605Z,6.30
2022-10-17T08:02:55.668Z,7.00
2022-10-17T08:05:22.936Z,7.57
2022-10-17T08:07:59.567Z,7.28
2022-10-17T08:10:28.431Z,8.00
2022-10-17T08:12:57.764Z,7.10
2022-10-17T08:15:29.449Z,5.82
2022-10-17T08:17:59.386Z,7.65
2022-10-17T08:20:26.608Z,5.90
2022-10-17T08:22:54.404Z,7.85
2022-10-17T08:25:21.791Z,6.53
2022-10-17T08:27:50.429Z,4.80
2022-10-17T08:30:17.628Z,8.43
2022-10-17T08:32:45.332Z,8.55
2022-10-17T08:35:14.834Z,8.43
2022-10-17T08:37:42.159Z,7.32
2022-10-17T08:40:18.989Z,8.93
2022-10-17T08:42:52.565Z,8.23
2022-10-17T08:45:32.954Z,6.57
2022-10-17T08:48:01.228Z,6.03
2022-10-17T08:50:31.691Z,6.53
2022-10-17T08:53:06.395Z,7.95
2022-10-17T08:55:41.443Z,6.80
2022-10-17T08:58:33.323Z,8.75
2022-10-17T09:01:10.526Z,8.57
2022-10-17T09:03:54.757Z,8.80
2022-10-17T09:06:30.000Z,8.80
2022-10-17T09:09:05.158Z,8.05
2022-10-17T09:12:14.123Z,9.38
2022-10-17T09:14:44.300Z,8.60
2022-10-17T09:17:16.963Z,8.90
2022-10-17T09:19:50.002Z,9.07
2022-10-17T09:22:22.375Z,9.52
2022-10-17T09:25:00.609Z,8.80
2022-10-17T09:27:32.776Z,9.15
2022-10-17T09:30:27.046Z,9.15
2022-10-17T09:33:28.493Z,9.10
2022-10-17T09:36:09.009Z,9.43
2022-10-17T09:38:41.276Z,8.90
2022-10-17T09:41:32.379Z,9.60
2022-10-17T09:44:44.408Z,9.30
2022-10-17T09:47:15.975Z,9.57
2022-10-17T09:49:45.780Z,9.15
2022-10-17T09:52:17.739Z,9.55
2022-10-17T09:54:50.438Z,8.32
2022-10-17T09:57:18.936Z,9.23
2022-10-17T09:59:55.905Z,8.88
2022-10-17T10:02:24.081Z,8.07
2022-10-17T10:05:07.131Z,8.15
2022-10-17T10:07:37.501Z,8.82
2022-10-17T10:12:34.271Z,8.73
2022-10-17T10:15:01.551Z,9.00
2022-10-17T10:17:41.508Z,9.43
2022-10-17T10:20:31.856Z,9.88
2022-10-17T10:23:12.121Z,9.75
2022-10-17T10:25:39.373Z,8.60
2022-10-17T10:28:11.776Z,8.63
2022-10-17T10:30:40.017Z,8.73
2022-10-17T10:33:11.427Z,8.50
2022-10-17T10:35:38.562Z,8.32
2022-10-17T10:38:12.373Z,9.88
2022-10-17T10:40:48.035Z,9.25
2022-10-17T10:43:37.727Z,7.78
2022-10-17T10:46:17.077Z,8.20
2022-10-17T10:48:59.676Z,8.57
2022-10-17T10:51:35.561Z,8.65
2022-10-17T10:54:24.119Z,9.40
2022-10-17T10:56:54.670Z,7.50
2022-10-17T10:59:30.374Z,8.55
2022-10-17T11:02:27.526Z,8.00
2022-10-17T11:05:35.326Z,8.57
2022-10-17T11:08:12.961Z,6.85
2022-10-17T11:10:51.704Z,6.13
2022-10-17T11:13:28.839Z,5.53
2022-10-17T11:16:04.653Z,5.28
2022-10-17T11:18:44.698Z,7.63
2022-10-17T11:21:22.295Z,6.80
2022-10-17T11:23:58.866Z,6.40
2022-10-17T11:26:32.419Z,5.25
2022-10-17T11:29:04.075Z,5.45
2022-10-17T11:31:41.627Z,6.68
2022-10-17T11:34:27.006Z,6.50
2022-10-17T11:37:01.180Z,8.13
2022-10-17T11:39:49.245Z,7.05
2022-10-17T11:42:39.358Z,7.55
2022-10-17T11:45:13.911Z,7.85
2022-10-17T11:47:46.780Z,8.75
2022-10-17T11:53:13.251Z,6.82
2022-10-17T11:55:41.607Z,7.40
2022-10-17T11:58:37.575Z,7.55
2022-10-17T12:01:24.530Z,6.72
2022-10-17T12:04:03.396Z,5.38
2022-10-17T12:06:39.108Z,4.88
2022-10-17T12:09:11.655Z,5.50
2022-10-17T12:11:56.985Z,7.63
2022-10-17T12:15:02.372Z,7.90
2022-10-17T12:17:39.204Z,7.10
2022-10-17T12:20:21.600Z,7.88
2022-10-17T12:22:51.171Z,7.30
2022-10-17T12:25:33.572Z,6.28
2022-10-17T12:30:37.767Z,6.28
2022-10-17T12:33:22.204Z,4.90
2022-10-17T12:35:51.410Z,6.13
2022-10-17T12:38:18.504Z,5.70
2022-10-17T12:40:49.081Z,6.22
2022-10-17T12:43:16.267Z,5.55
2022-10-17T12:45:48.295Z,5.45
2022-10-17T12:48:37.390Z,5.50
2022-10-17T12:54:02.356Z,5.13
2022-10-17T12:56:39.641Z,4.95
2022-10-17T12:59:15.764Z,4.65
2022-10-17T13:01:47.350Z,5.72
2022-10-17T13:04:18.367Z,5.47
2022-10-17T13:06:54.093Z,5.07
2022-10-17T13:09:31.255Z,4.68
2022-10-17T13:12:00.150Z,4.97
2022-10-17T13:14:27.776Z,4.90
2022-10-17T13:17:03.001Z,5.15
2022-10-17T13:19:42.608Z,6.03
2022-10-17T13:22:19.735Z,5.13
2022-10-17T13:24:47.211Z,5.47
2022-10-17T13:27:24.780Z,4.70
2022-10-17T13:29:51.923Z,6.05
2022-10-17T13:32:19.025Z,7.22
2022-10-17T13:34:46.116Z,6.65
2022-10-17T13:37:15.203Z,5.60
2022-10-17T13:39:54.882Z,5.93
2022-10-17T13:42:29.616Z,6.50
2022-10-17T13:44:58.226Z,6.95
2022-10-17T13:47:32.234Z,7.53
2022-10-17T13:49:59.767Z,11.63
2022-10-17T13:52:29.973Z,7.15
2022-10-17T13:55:09.732Z,5.45
2022-10-17T13:57:36.792Z,6.75
2022-10-17T14:00:11.383Z,7.45
2022-10-17T14:02:43.042Z,7.07
2022-10-17T14:05:17.684Z,7.55
2022-10-17T14:08:10.017Z,5.97
2022-10-17T14:10:38.044Z,7.22
2022-10-17T14:13:10.401Z,7.53
2022-10-17T14:15:37.637Z,7.85
2022-10-17T14:18:08.370Z,8.27
2022-10-17T14:23:42.408Z,6.10
2022-10-17T14:26:13.945Z,8.55
2022-10-17T14:28:43.073Z,9.15
2022-10-17T14:31:31.840Z,9.75
2022-10-17T14:34:00.830Z,9.95
2022-10-17T14:36:38.290Z,9.90
2022-10-17T14:39:13.368Z,7.82
2022-10-17T14:41:44.574Z,9.82
2022-10-17T14:44:25.628Z,9.13
2022-10-17T14:46:59.176Z,10.25
2022-10-17T14:49:41.095Z,9.73
2022-10-17T14:52:15.116Z,10.05
2022-10-17T14:54:46.953Z,10.90
2022-10-17T14:57:48.908Z,10.18
2022-10-17T15:00:18.340Z,7.65
2022-10-17T15:02:46.080Z,8.20
2022-10-17T15:05:14.161Z,10.27
2022-10-17T15:07:41.957Z,9.85
2022-10-17T15:10:35.712Z,9.40
2022-10-17T15:13:26.815Z,11.23
2022-10-17T15:15:51.911Z,12.07
2022-10-17T15:18:19.151Z,11.27
2022-10-17T15:20:46.268Z,10.13
2022-10-17T15:23:13.331Z,9.32
2022-10-17T15:25:40.687Z,8.40
2022-10-17T15:28:07.947Z,10.18
2022-10-17T15:30:36.764Z,10.45
2022-10-17T15:33:03.908Z,9.80
2022-10-17T15:35:31.182Z,10.38
2022-10-17T15:37:58.279Z,9.63
2022-10-17T15:40:30.480Z,10.52
2022-10-17T15:42:57.545Z,9.25
2022-10-17T15:45:24.970Z,10.63
2022-10-17T15:48:04.084Z,8.15
2022-10-17T15:50:31.191Z,9.45
2022-10-17T15:52:58.446Z,9.20
2022-10-17T15:55:25.758Z,9.77
2022-10-17T15:57:52.859Z,10.50
2022-10-17T16:00:22.740Z,8.70
2022-10-17T16:02:50.276Z,8.68
2022-10-17T16:05:23.688Z,9.43
2022-10-17T16:07:52.583Z,8.32
2022-10-17T16:10:20.455Z,9.02
2022-10-17T16:12:49.687Z,8.63
2022-10-17T16:15:25.024Z,9.70
2022-10-17T16:17:53.168Z,9.25
2022-10-17T16:20:21.162Z,8.02
2022-10-17T16:22:48.692Z,8.57
2022-10-17T16:25:19.866Z,7.35
2022-10-17T16:27:48.188Z,8.63
2022-10-17T16:30:15.656Z,8.80
2022-10-17T16:32:43.463Z,8.30
2022-10-17T16:35:16.259Z,7.95
2022-10-17T16:37:43.457Z,8.32
2022-10-17T16:40:11.099Z,8.13
2022-10-17T16:42:38.246Z,8.38
2022-10-17T16:45:05.388Z,7.50
2022-10-17T16:47:32.114Z,7.70
2022-10-17T16:49:59.522Z,7.32
2022-10-17T16:52:26.806Z,6.55
2022-10-17T16:54:54.224Z,5.85
2022-10-17T16:57:21.336Z,6.25
2022-10-17T16:59:48.549Z,6.57
2022-10-17T17:02:18.919Z,6.65
2022-10-17T17:04:48.377Z,6.00
2022-10-17T17:07:15.124Z,6.10
2022-10-17T17:09:42.540Z,6.03
2022-10-17T17:12:09.760Z,6.35
2022-10-17T17:14:36.898Z,5.70
2022-10-17T17:17:03.969Z,5.97
2022-10-17T17:19:31.019Z,5.47
2022-10-17T17:21:58.046Z,5.68
2022-10-17T17:24:25.494Z,5.10
2022-10-17T17:26:54.195Z,6.05
2022-10-17T17:29:21.563Z,6.68
2022-10-17T17:31:49.227Z,6.38
2022-10-17T17:34:18.113Z,5.43
2022-10-17T17:36:45.904Z,6.35
2022-10-17T17:39:13.919Z,5.65
2022-10-17T17:41:41.968Z,5.60
2022-10-17T17:44:13.976Z,5.80
2022-10-17T17:46:43.727Z,5.93
2022-10-17T17:49:11.676Z,8.13
2022-10-17T17:51:42.278Z,8.13
2022-10-17T17:54:12.579Z,8.10
2022-10-17T17:56:39.925Z,8.98
2022-10-17T17:59:07.021Z,8.45
2022-10-17T18:01:38.913Z,7.18
2022-10-17T18:04:08.453Z,6.60
2022-10-17T18:06:36.434Z,7.03
2022-10-17T18:09:03.979Z,5.95
2022-10-17T18:11:31.418Z,6.65
2022-10-17T18:14:00.010Z,9.30
2022-10-17T18:16:32.007Z,10.00
2022-10-17T18:19:04.066Z,10.35
2022-10-17T18:21:33.931Z,14.35
2022-10-17T18:24:01.560Z,9.82
2022-10-17T18:26:28.935Z,7.70
2022-10-17T18:28:56.577Z,7.78
2022-10-17T18:31:29.427Z,7.82
2022-10-17T18:33:57.639Z,9.48
2022-10-17T18:36:26.310Z,9.38
2022-10-17T18:38:54.031Z,10.50
2022-10-17T18:41:22.915Z,9.13
2022-10-17T18:43:50.991Z,10.00
2022-10-17T18:46:21.903Z,10.73
2022-10-17T18:48:49.595Z,9.52
2022-10-17T18:51:18.876Z,9.68
2022-10-17T18:53:47.455Z,11.60
2022-10-17T18:56:15.032Z,12.32
2022-10-17T18:58:42.521Z,11.23
2022-10-17T19:01:17.554Z,7.57
2022-10-17T19:03:45.888Z,8.07
2022-10-17T19:06:15.306Z,9.35
2022-10-17T19:08:42.842Z,9.18
2022-10-17T19:11:11.537Z,9.98
2022-10-17T19:13:39.449Z,8.82
2022-10-17T19:16:10.894Z,7.82
2022-10-17T19:18:38.363Z,7.53
2022-10-17T19:21:06.794Z,8.73
2022-10-17T19:23:35.830Z,8.90
2022-10-17T19:26:08.349Z,10.38
2022-10-17T19:28:36.338Z,9.80
2022-10-17T19:31:04.112Z,17.27
2022-10-17T19:33:31.874Z,16.40
2022-10-17T19:36:02.884Z,12.25
2022-10-17T19:38:30.035Z,11.63
2022-10-17T19:40:57.186Z,12.70
2022-10-17T19:43:25.654Z,14.55
2022-10-17T19:45:57.290Z,15.38
2022-10-17T19:48:25.155Z,15.30
2022-10-17T19:50:53.162Z,16.83
2022-10-17T19:53:21.008Z,15.25
2022-10-17T19:55:48.256Z,17.45
2022-10-17T19:58:14.975Z,18.80
2022-10-17T20:00:52.424Z,18.48
2022-10-17T20:03:19.602Z,16.75
2022-10-17T20:05:46.568Z,17.25
2022-10-17T20:08:14.163Z,17.52
2022-10-17T20:10:41.857Z,17.58
2022-10-17T20:13:09.208Z,15.60
2022-10-17T20:15:36.860Z,15.63
2022-10-17T20:18:04.369Z,15.95
2022-10-17T20:20:31.707Z,15.50
2022-10-17T20:22:58.767Z,14.50
2022-10-17T20:25:25.936Z,17.08
2022-10-17T20:27:53.568Z,16.65
2022-10-17T20:30:20.708Z,15.43
2022-10-17T20:32:47.761Z,17.17
2022-10-17T20:35:14.813Z,16.98
2022-10-17T20:37:42.811Z,16.67
2022-10-17T20:40:33.527Z,17.65
2022-10-17T20:42:57.008Z,15.65
2022-10-17T20:45:37.507Z,17.00
2022-10-17T20:48:15.538Z,17.52
2022-10-17T20:50:43.408Z,17.58
2022-10-17T20:53:35.449Z,16.85
2022-10-17T20:56:06.788Z,16.05
2022-10-17T20:58:33.882Z,16.60
2022-10-17T21:01:06.165Z,19.33
2022-10-17T21:03:39.763Z,18.38
2022-10-17T21:08:36.858Z,16.92
2022-10-17T21:11:10.070Z,17.65
2022-10-17T21:13:37.436Z,18.20
2022-10-17T21:16:05.455Z,17.52
2022-10-17T21:18:32.498Z,17.85
2022-10-17T21:21:09.702Z,19.00
2022-10-17T21:23:36.930Z,17.05
2022-10-17T21:26:04.291Z,18.45
2022-10-17T21:28:31.427Z,18.35
2022-10-17T21:31:07.601Z,17.42
2022-10-17T21:33:34.714Z,17.80
2022-10-17T21:36:01.814Z,16.30
2022-10-17T21:38:31.357Z,17.52
2022-10-17T21:40:58.531Z,17.00
2022-10-17T21:43:26.763Z,17.48
2022-10-17T21:45:53.850Z,17.08
2022-10-17T21:48:20.927Z,17.33
2022-10-17T21:50:48.080Z,17.17
2022-10-17T21:55:51.135Z,15.52
2022-10-17T21:58:20.837Z,16.15
2022-10-17T22:00:53.236Z,14.90
2022-10-17T22:03:20.324Z,15.45
2022-10-17T22:05:47.508Z,16.00
2022-10-17T22:08:14.607Z,15.27
2022-10-17T22:10:43.284Z,15.63
2022-10-17T22:13:13.247Z,15.73
2022-10-17T22:15:40.298Z,15.15
2022-10-17T22:18:10.593Z,15.27
2022-10-17T22:20:40.795Z,15.20
2022-10-17T22:23:08.761Z,16.08
2022-10-17T22:25:38.368Z,15.13
2022-10-17T22:28:05.540Z,15.82
2022-10-17T22:30:32.801Z,17.90
2022-10-17T22:33:00.121Z,14.75
2022-10-17T22:35:27.432Z,14.82
2022-10-17T22:37:54.712Z,14.80
2022-10-17T22:40:24.321Z,14.40
2022-10-17T22:42:51.636Z,14.18
2022-10-17T22:45:19.143Z,14.52
2022-10-17T22:47:46.244Z,14.38
2022-10-17T22:50:13.062Z,15.45
2022-10-17T22:52:40.328Z,16.23
2022-10-17T22:55:09.971Z,14.38
2022-10-17T22:57:37.262Z,15.27
2022-10-17T23:00:06.090Z,15.40
2022-10-17T23:02:33.571Z,15.38
2022-10-17T23:05:01.011Z,16.27
2022-10-17T23:07:28.344Z,13.88
2022-10-17T23:09:55.819Z,13.43
2022-10-17T23:12:23.086Z,12.60
2022-10-17T23:14:50.171Z,13.73
2022-10-17T23:17:17.626Z,13.68
2022-10-17T23:19:45.133Z,13.25
2022-10-17T23:22:12.419Z,9.38
2022-10-17T23:24:39.503Z,10.63
2022-10-17T23:27:06.607Z,10.75
2022-10-17T23:29:34.357Z,12.77
2022-10-17T23:32:01.920Z,11.32
2022-10-17T23:34:31.298Z,12.30
2022-10-17T23:36:58.683Z,12.65
2022-10-17T23:39:25.818Z,12.43
2022-10-17T23:41:52.892Z,12.13
2022-10-17T23:44:20.010Z,12.30
2022-10-17T23:46:47.060Z,12.88
2022-10-17T23:49:14.212Z,13.60
2022-10-17T23:51:41.336Z,15.32
2022-10-17T23:54:08.421Z,14.95
2022-10-17T23:56:35.613Z,14.50
2022-10-17T23:59:02.749Z,16.25
